Bern-Belp, Switzerland

11:41 PM CEST on August 21, 2014 (GMT +0200)
Belp | Change Station
CLOSE
Current Station
Airport
Location: Bern-Belp,
Elevation: 1673 ft
Nearby Weather Stations

Elev 1673 ft 46.91 °N, 7.50 °E | Updated 21 minutes ago

Clear
Clear
52 °F
Feels Like 52 °F
N
2
Wind Variable Wind from Variable

Today
High -- | Low -- °F
--% Chance of Precip.
Yesterday
High -- | Low -- °F
Precip. -- in
6:34 AM 8:30 PM
Waning Crescent, 12% visible
Pressure 30.04 in
Visibility 6.2 miles
Clouds
Dew Point 50 °F
Humidity 94%
Rainfall 0.00 in
Snow Depth Not available.
UV Not available.
Pollen Not available.
Air Quality Not available.
Flu Activity Not available.
METAR LSZB 212120Z AUTO VRB02KT 9999 NCD 11/10 Q1017

More Conditions Fewer Conditions

Pressure 30.04 in
Visibility 6.2 miles
Clouds
Dew Point 50 °F
Humidity 94%
Rainfall 0.00 in
Snow Depth Not available.
UV Not available.
Pollen Not available.
Air Quality Not available.
Flu Activity Not available.
METAR LSZB 212120Z AUTO VRB02KT 9999 NCD 11/10 Q1017

More Conditions Fewer Conditions

10-Day Weather Forecast

Almanac

Astronomy

Aug. 21, 2014 Rise Set
Actual Time 6:34 AM CEST 8:30 PM CEST
Civil Twilight 6:02 AM CEST 9:03 PM CEST
Nautical Twilight 5:22 AM CEST 9:43 PM CEST
Astronomical Twilight 4:37 AM CEST 10:27 PM CEST
Moon 2:44 AM CEST 5:53 PM CEST
Length of Visible Light 15h 00m
Length of Day
13h 55m
Tomorrow will be 3m 7s shorter.
Waning Crescent, 12% of the Moon is Illuminated
Today
Waning Crescent
Aug 25
New
Sep 2
First Quarter
Sep 8
Full
Sep 15
Last Quarter

Today's Extremes

Country Highs Country Lows

Community

WunderPhotos

Upload Photos

1,746,021 photos uploaded!

WunderBlogs® & News

Nearby

Snow Depth

Not available.

Earthquake Activity

City Distance Mag. Time & Date
No recent earthquake activity has been reported nearby.
Minimum magnitude displayed is 2.5.

Coastal Water Temperatures

Place Temperature
No Stations Reporting

Nearby Weather Stations